sensor_id;sensor_type;location;lat;lon;timestamp;pressure;altitude;pressure_sealevel;temperature;humidity
34931;BME280;21134;49.646;8.560;2023-04-07T00:00:58;100486.72;;;7.34;100.00
34931;BME280;21134;49.646;8.560;2023-04-07T00:03:26;100486.72;;;7.34;100.00
34931;BME280;21134;49.646;8.560;2023-04-07T00:05:53;100473.91;;;7.30;100.00
34931;BME280;21134;49.646;8.560;2023-04-07T00:08:19;100474.81;;;7.32;100.00
34931;BME280;21134;49.646;8.560;2023-04-07T00:10:46;100480.69;;;7.28;100.00
34931;BME280;21134;49.646;8.560;2023-04-07T00:13:14;100474.66;;;7.21;100.00
34931;BME280;21134;49.646;8.560;2023-04-07T00:15:40;100472.09;;;7.21;100.00
34931;BME280;21134;49.646;8.560;2023-04-07T00:18:07;100465.41;;;7.25;100.00
34931;BME280;21134;49.646;8.560;2023-04-07T00:20:34;100465.34;;;7.23;100.00
34931;BME280;21134;49.646;8.560;2023-04-07T00:23:00;100464.59;;;7.29;100.00
34931;BME280;21134;49.646;8.560;2023-04-07T00:25:27;100462.84;;;7.25;100.00
34931;BME280;21134;49.646;8.560;2023-04-07T00:27:53;100462.81;;;7.23;100.00
34931;BME280;21134;49.646;8.560;2023-04-07T00:30:21;100455.22;;;7.26;100.00
34931;BME280;21134;49.646;8.560;2023-04-07T00:32:48;100454.38;;;7.27;100.00
34931;BME280;21134;49.646;8.560;2023-04-07T00:35:15;100455.25;;;7.28;100.00
34931;BME280;21134;49.646;8.560;2023-04-07T00:37:42;100445.06;;;7.28;100.00
34931;BME280;21134;49.646;8.560;2023-04-07T00:40:09;100443.34;;;7.27;100.00
34931;BME280;21134;49.646;8.560;2023-04-07T00:42:36;100435.75;;;7.28;100.00
34931;BME280;21134;49.646;8.560;2023-04-07T00:45:03;100436.59;;;7.30;100.00
34931;BME280;21134;49.646;8.560;2023-04-07T00:47:31;100442.47;;;7.23;100.00
34931;BME280;21134;49.646;8.560;2023-04-07T00:49:58;100430.59;;;7.23;100.00
34931;BME280;21134;49.646;8.560;2023-04-07T00:52:24;100423.75;;;7.21;100.00
34931;BME280;21134;49.646;8.560;2023-04-07T00:54:55;100427.19;;;7.21;100.00
34931;BME280;21134;49.646;8.560;2023-04-07T00:57:22;100418.66;;;7.21;100.00
34931;BME280;21134;49.646;8.560;2023-04-07T00:59:49;100418.66;;;7.21;100.00
34931;BME280;21134;49.646;8.560;2023-04-07T01:02:19;100410.19;;;7.20;100.00
34931;BME280;21134;49.646;8.560;2023-04-07T01:04:52;100409.34;;;7.20;100.00
34931;BME280;21134;49.646;8.560;2023-04-07T01:07:23;100415.28;;;7.20;100.00
34931;BME280;21134;49.646;8.560;2023-04-07T01:09:56;100411.09;;;7.27;100.00
34931;BME280;21134;49.646;8.560;2023-04-07T01:12:33;100407.72;;;7.25;100.00
34931;BME280;21134;49.646;8.560;2023-04-07T01:15:06;100393.22;;;7.19;100.00
34931;BME280;21134;49.646;8.560;2023-04-07T01:17:34;100396.59;;;7.17;100.00
34931;BME280;21134;49.646;8.560;2023-04-07T01:20:06;100395.78;;;7.18;100.00
34931;BME280;21134;49.646;8.560;2023-04-07T01:22:39;100392.34;;;7.17;100.00
34931;BME280;21134;49.646;8.560;2023-04-07T01:25:33;100395.84;;;7.26;100.00
34931;BME280;21134;49.646;8.560;2023-04-07T01:28:27;100386.50;;;7.25;100.00
34931;BME280;21134;49.646;8.560;2023-04-07T01:31:00;100390.69;;;7.21;100.00
34931;BME280;21134;49.646;8.560;2023-04-07T01:33:31;100384.78;;;7.22;100.00
34931;BME280;21134;49.646;8.560;2023-04-07T01:35:59;100384.81;;;7.25;100.00
34931;BME280;21134;49.646;8.560;2023-04-07T01:38:27;100383.09;;;7.24;100.00
34931;BME280;21134;49.646;8.560;2023-04-07T01:40:55;100389.91;;;7.27;100.00
34931;BME280;21134;49.646;8.560;2023-04-07T01:43:23;100385.66;;;7.26;100.00
34931;BME280;21134;49.646;8.560;2023-04-07T01:45:51;100384.00;;;7.28;100.00
34931;BME280;21134;49.646;8.560;2023-04-07T01:48:20;100381.44;;;7.29;100.00
34931;BME280;21134;49.646;8.560;2023-04-07T01:50:48;100375.50;;;7.30;100.00
34931;BME280;21134;49.646;8.560;2023-04-07T01:53:15;100374.69;;;7.31;100.00
34931;BME280;21134;49.646;8.560;2023-04-07T01:55:42;100372.97;;;7.30;100.00
34931;BME280;21134;49.646;8.560;2023-04-07T01:58:09;100368.75;;;7.32;100.00
34931;BME280;21134;49.646;8.560;2023-04-07T02:00:36;100371.31;;;7.32;100.00
34931;BME280;21134;49.646;8.560;2023-04-07T02:03:06;100366.22;;;7.31;100.00
34931;BME280;21134;49.646;8.560;2023-04-07T02:05:37;100363.63;;;7.29;100.00
34931;BME280;21134;49.646;8.560;2023-04-07T02:08:07;100358.56;;;7.28;100.00
34931;BME280;21134;49.646;8.560;2023-04-07T02:10:36;100362.72;;;7.22;100.00
34931;BME280;21134;49.646;8.560;2023-04-07T02:13:06;100364.47;;;7.27;100.00
34931;BME280;21134;49.646;8.560;2023-04-07T02:15:34;100358.59;;;7.31;100.00
34931;BME280;21134;49.646;8.560;2023-04-07T02:18:02;100361.13;;;7.31;100.00
34931;BME280;21134;49.646;8.560;2023-04-07T02:20:30;100359.41;;;7.30;100.00
34931;BME280;21134;49.646;8.560;2023-04-07T02:22:58;100361.13;;;7.31;100.00
34931;BME280;21134;49.646;8.560;2023-04-07T02:25:26;100361.94;;;7.28;100.00
34931;BME280;21134;49.646;8.560;2023-04-07T02:27:54;100358.56;;;7.28;100.00
34931;BME280;21134;49.646;8.560;2023-04-07T02:30:21;100356.81;;;7.25;100.00
34931;BME280;21134;49.646;8.560;2023-04-07T02:32:48;100347.44;;;7.19;100.00
34931;BME280;21134;49.646;8.560;2023-04-07T02:35:15;100352.50;;;7.19;100.00
34931;BME280;21134;49.646;8.560;2023-04-07T02:37:42;100346.50;;;7.13;100.00
34931;BME280;21134;49.646;8.560;2023-04-07T02:40:10;100350.72;;;7.09;100.00
34931;BME280;21134;49.646;8.560;2023-04-07T02:42:37;100345.59;;;7.06;100.00
34931;BME280;21134;49.646;8.560;2023-04-07T02:45:04;100343.81;;;7.01;100.00
34931;BME280;21134;49.646;8.560;2023-04-07T02:47:31;100345.50;;;6.97;100.00
34931;BME280;21134;49.646;8.560;2023-04-07T02:49:58;100342.91;;;6.95;100.00
34931;BME280;21134;49.646;8.560;2023-04-07T02:52:25;100348.00;;;6.94;100.00
34931;BME280;21134;49.646;8.560;2023-04-07T02:54:51;100341.19;;;6.91;100.00
34931;BME280;21134;49.646;8.560;2023-04-07T02:57:19;100333.50;;;6.88;100.00
34931;BME280;21134;49.646;8.560;2023-04-07T02:59:45;100343.72;;;6.91;100.00
34931;BME280;21134;49.646;8.560;2023-04-07T03:02:12;100340.31;;;6.91;100.00
34931;BME280;21134;49.646;8.560;2023-04-07T03:04:38;100336.94;;;6.92;100.00
34931;BME280;21134;49.646;8.560;2023-04-07T03:07:05;100336.06;;;6.88;100.00
34931;BME280;21134;49.646;8.560;2023-04-07T03:09:32;100334.41;;;6.92;100.00
34931;BME280;21134;49.646;8.560;2023-04-07T03:11:59;100327.66;;;6.92;100.00
34931;BME280;21134;49.646;8.560;2023-04-07T03:14:27;100330.19;;;6.94;100.00
34931;BME280;21134;49.646;8.560;2023-04-07T03:16:54;100326.00;;;6.96;100.00
34931;BME280;21134;49.646;8.560;2023-04-07T03:19:20;100326.88;;;6.99;100.00
34931;BME280;21134;49.646;8.560;2023-04-07T03:21:47;100332.00;;;7.03;100.00
34931;BME280;21134;49.646;8.560;2023-04-07T03:24:13;100332.00;;;7.03;100.00
34931;BME280;21134;49.646;8.560;2023-04-07T03:26:40;100326.88;;;6.99;100.00
34931;BME280;21134;49.646;8.560;2023-04-07T03:29:06;100332.81;;;7.00;100.00
34931;BME280;21134;49.646;8.560;2023-04-07T03:31:34;100326.00;;;6.97;100.00
34931;BME280;21134;49.646;8.560;2023-04-07T03:34:02;100325.13;;;6.97;100.00
34931;BME280;21134;49.646;8.560;2023-04-07T03:36:29;100324.25;;;6.93;100.00
34931;BME280;21134;49.646;8.560;2023-04-07T03:38:57;100319.94;;;6.88;100.00
34931;BME280;21134;49.646;8.560;2023-04-07T03:41:24;100323.34;;;6.88;100.00
34931;BME280;21134;49.646;8.560;2023-04-07T03:43:50;100321.59;;;6.86;100.00
34931;BME280;21134;49.646;8.560;2023-04-07T03:46:18;100321.59;;;6.84;100.00
34931;BME280;21134;49.646;8.560;2023-04-07T03:48:46;100321.59;;;6.84;100.00
34931;BME280;21134;49.646;8.560;2023-04-07T03:51:12;100321.56;;;6.83;100.00
34931;BME280;21134;49.646;8.560;2023-04-07T03:53:39;100315.63;;;6.81;100.00
34931;BME280;21134;49.646;8.560;2023-04-07T03:56:05;100309.69;;;6.80;100.00
34931;BME280;21134;49.646;8.560;2023-04-07T03:58:32;100313.09;;;6.82;100.00
34931;BME280;21134;49.646;8.560;2023-04-07T04:00:59;100312.28;;;6.83;100.00
34931;BME280;21134;49.646;8.560;2023-04-07T04:03:25;100314.81;;;6.85;100.00
34931;BME280;21134;49.646;8.560;2023-04-07T04:05:53;100317.38;;;6.85;100.00
34931;BME280;21134;49.646;8.560;2023-04-07T04:08:20;100316.47;;;6.83;100.00
34931;BME280;21134;49.646;8.560;2023-04-07T04:10:46;100319.03;;;6.83;100.00
34931;BME280;21134;49.646;8.560;2023-04-07T04:13:12;100316.47;;;6.81;100.00
34931;BME280;21134;49.646;8.560;2023-04-07T04:15:39;100317.34;;;6.80;100.00
34931;BME280;21134;49.646;8.560;2023-04-07T04:18:06;100313.06;;;6.79;100.00
34931;BME280;21134;49.646;8.560;2023-04-07T04:20:32;100321.56;;;6.81;100.00
34931;BME280;21134;49.646;8.560;2023-04-07T04:23:00;100325.81;;;6.81;100.00
34931;BME280;21134;49.646;8.560;2023-04-07T04:25:27;100330.91;;;6.81;100.00
34931;BME280;21134;49.646;8.560;2023-04-07T04:27:54;100324.13;;;6.80;100.00
34931;BME280;21134;49.646;8.560;2023-04-07T04:30:20;100323.25;;;6.81;100.00
34931;BME280;21134;49.646;8.560;2023-04-07T04:32:47;100325.81;;;6.82;100.00
34931;BME280;21134;49.646;8.560;2023-04-07T04:35:13;100326.66;;;6.80;100.00
34931;BME280;21134;49.646;8.560;2023-04-07T04:37:40;100321.56;;;6.80;100.00
34931;BME280;21134;49.646;8.560;2023-04-07T04:40:09;100316.44;;;6.77;100.00
34931;BME280;21134;49.646;8.560;2023-04-07T04:42:35;100321.50;;;6.75;100.00
34931;BME280;21134;49.646;8.560;2023-04-07T04:45:02;100313.84;;;6.72;100.00
34931;BME280;21134;49.646;8.560;2023-04-07T04:47:29;100319.75;;;6.71;100.00
34931;BME280;21134;49.646;8.560;2023-04-07T04:49:55;100319.72;;;6.69;100.00
34931;BME280;21134;49.646;8.560;2023-04-07T04:52:22;100320.56;;;6.70;100.00
34931;BME280;21134;49.646;8.560;2023-04-07T04:54:49;100324.00;;;6.70;100.00
34931;BME280;21134;49.646;8.560;2023-04-07T04:57:16;100318.91;;;6.70;100.00
34931;BME280;21134;49.646;8.560;2023-04-07T04:59:43;100323.97;;;6.69;100.00
34931;BME280;21134;49.646;8.560;2023-04-07T05:02:09;100327.31;;;6.66;100.00
34931;BME280;21134;49.646;8.560;2023-04-07T05:04:36;100324.84;;;6.71;100.00
34931;BME280;21134;49.646;8.560;2023-04-07T05:07:03;100322.31;;;6.71;100.00
34931;BME280;21134;49.646;8.560;2023-04-07T05:09:29;100327.38;;;6.71;100.00
34931;BME280;21134;49.646;8.560;2023-04-07T05:11:56;100332.50;;;6.74;100.00
34931;BME280;21134;49.646;8.560;2023-04-07T05:14:24;100327.44;;;6.75;100.00
34931;BME280;21134;49.646;8.560;2023-04-07T05:16:50;100330.84;;;6.78;100.00
34931;BME280;21134;49.646;8.560;2023-04-07T05:19:18;100326.66;;;6.81;100.00
34931;BME280;21134;49.646;8.560;2023-04-07T05:21:45;100324.16;;;6.84;100.00
34931;BME280;21134;49.646;8.560;2023-04-07T05:24:11;100330.16;;;6.89;100.00
34931;BME280;21134;49.646;8.560;2023-04-07T05:26:38;100331.88;;;6.95;100.00
34931;BME280;21134;49.646;8.560;2023-04-07T05:29:04;100333.63;;;6.97;100.00
34931;BME280;21134;49.646;8.560;2023-04-07T05:31:32;100329.41;;;7.01;100.00
34931;BME280;21134;49.646;8.560;2023-04-07T05:34:01;100331.16;;;7.02;100.00
34931;BME280;21134;49.646;8.560;2023-04-07T05:36:27;100320.09;;;7.02;100.00
34931;BME280;21134;49.646;8.560;2023-04-07T05:38:55;100326.09;;;7.07;100.00
34931;BME280;21134;49.646;8.560;2023-04-07T05:41:22;100327.78;;;7.08;100.00
34931;BME280;21134;49.646;8.560;2023-04-07T05:43:48;100333.72;;;7.08;100.00
34931;BME280;21134;49.646;8.560;2023-04-07T05:46:15;100329.53;;;7.12;100.00
34931;BME280;21134;49.646;8.560;2023-04-07T05:48:42;100326.19;;;7.16;100.00
34931;BME280;21134;49.646;8.560;2023-04-07T05:51:09;100327.03;;;7.16;100.00
34931;BME280;21134;49.646;8.560;2023-04-07T05:53:36;100330.47;;;7.20;100.00
34931;BME280;21134;49.646;8.560;2023-04-07T05:56:02;100330.50;;;7.21;100.00
34931;BME280;21134;49.646;8.560;2023-04-07T05:58:29;100323.75;;;7.27;100.00
34931;BME280;21134;49.646;8.560;2023-04-07T06:00:55;100325.50;;;7.31;100.00
34931;BME280;21134;49.646;8.560;2023-04-07T06:03:21;100328.09;;;7.40;100.00
34931;BME280;21134;49.646;8.560;2023-04-07T06:05:50;100325.66;;;7.48;100.00
34931;BME280;21134;49.646;8.560;2023-04-07T06:08:16;100328.28;;;7.57;100.00
34931;BME280;21134;49.646;8.560;2023-04-07T06:10:43;100330.91;;;7.66;100.00
34931;BME280;21134;49.646;8.560;2023-04-07T06:13:09;100328.44;;;7.77;100.00
34931;BME280;21134;49.646;8.560;2023-04-07T06:15:36;100333.59;;;7.87;100.00
34931;BME280;21134;49.646;8.560;2023-04-07T06:18:02;100336.22;;;7.95;100.00
34931;BME280;21134;49.646;8.560;2023-04-07T06:20:29;100333.72;;;8.06;100.00
34931;BME280;21134;49.646;8.560;2023-04-07T06:22:57;100332.09;;;8.19;100.00
34931;BME280;21134;49.646;8.560;2023-04-07T06:25:23;100333.03;;;8.30;100.00
34931;BME280;21134;49.646;8.560;2023-04-07T06:27:50;100333.13;;;8.41;100.00
34931;BME280;21134;49.646;8.560;2023-04-07T06:30:16;100337.44;;;8.54;100.00
34931;BME280;21134;49.646;8.560;2023-04-07T06:32:43;100327.28;;;8.66;100.00
34931;BME280;21134;49.646;8.560;2023-04-07T06:35:10;100326.44;;;8.70;99.81
34931;BME280;21134;49.646;8.560;2023-04-07T06:37:36;100332.47;;;8.81;99.21
34931;BME280;21134;49.646;8.560;2023-04-07T06:40:06;100336.72;;;8.84;97.76
34931;BME280;21134;49.646;8.560;2023-04-07T06:42:32;100337.59;;;8.92;96.38
34931;BME280;21134;49.646;8.560;2023-04-07T06:44:59;100342.72;;;9.06;95.48
34931;BME280;21134;49.646;8.560;2023-04-07T06:47:25;100339.38;;;9.24;95.13
34931;BME280;21134;49.646;8.560;2023-04-07T06:49:52;100337.69;;;9.32;94.33
34931;BME280;21134;49.646;8.560;2023-04-07T06:52:18;100340.25;;;9.53;93.42
34931;BME280;21134;49.646;8.560;2023-04-07T06:54:45;100336.88;;;9.71;92.57
34931;BME280;21134;49.646;8.560;2023-04-07T06:57:14;100341.13;;;9.78;91.63
34931;BME280;21134;49.646;8.560;2023-04-07T06:59:40;100341.97;;;9.88;91.21
34931;BME280;21134;49.646;8.560;2023-04-07T07:02:07;100339.41;;;9.88;89.32
34931;BME280;21134;49.646;8.560;2023-04-07T07:04:33;100341.09;;;10.01;89.36
34931;BME280;21134;49.646;8.560;2023-04-07T07:07:00;100341.94;;;10.19;88.87
34931;BME280;21134;49.646;8.560;2023-04-07T07:09:27;100347.91;;;10.16;87.91
34931;BME280;21134;49.646;8.560;2023-04-07T07:11:53;100340.22;;;10.30;87.86
34931;BME280;21134;49.646;8.560;2023-04-07T07:14:21;100344.47;;;10.25;87.84
34931;BME280;21134;49.646;8.560;2023-04-07T07:16:48;100346.16;;;10.40;87.38
34931;BME280;21134;49.646;8.560;2023-04-07T07:19:14;100346.97;;;10.56;86.30
34931;BME280;21134;49.646;8.560;2023-04-07T07:21:41;100340.97;;;10.67;85.71
34931;BME280;21134;49.646;8.560;2023-04-07T07:24:07;100353.72;;;10.77;85.13
34931;BME280;21134;49.646;8.560;2023-04-07T07:26:34;100347.72;;;10.87;84.06
34931;BME280;21134;49.646;8.560;2023-04-07T07:29:00;100344.25;;;10.96;83.52
34931;BME280;21134;49.646;8.560;2023-04-07T07:31:28;100343.25;;;11.20;82.54
34931;BME280;21134;49.646;8.560;2023-04-07T07:33:55;100343.97;;;11.46;82.35
34931;BME280;21134;49.646;8.560;2023-04-07T07:36:21;100345.53;;;11.64;80.08
34931;BME280;21134;49.646;8.560;2023-04-07T07:38:49;100342.81;;;11.84;79.03
34931;BME280;21134;49.646;8.560;2023-04-07T07:41:16;100341.16;;;11.78;77.74
34931;BME280;21134;49.646;8.560;2023-04-07T07:43:42;100348.88;;;11.75;77.64
34931;BME280;21134;49.646;8.560;2023-04-07T07:46:08;100343.75;;;11.71;79.45
34931;BME280;21134;49.646;8.560;2023-04-07T07:48:36;100345.41;;;11.87;78.72
34931;BME280;21134;49.646;8.560;2023-04-07T07:51:03;100347.97;;;11.85;77.97
34931;BME280;21134;49.646;8.560;2023-04-07T07:53:30;100353.91;;;11.83;75.75
34931;BME280;21134;49.646;8.560;2023-04-07T07:55:57;100350.59;;;11.75;76.08
34931;BME280;21134;49.646;8.560;2023-04-07T07:58:23;100361.72;;;11.71;77.50
34931;BME280;21134;49.646;8.560;2023-04-07T08:00:50;100366.81;;;11.74;78.44
34931;BME280;21134;49.646;8.560;2023-04-07T08:03:16;100355.66;;;11.79;77.21
34931;BME280;21134;49.646;8.560;2023-04-07T08:05:46;100365.97;;;11.75;76.36
34931;BME280;21134;49.646;8.560;2023-04-07T08:08:13;100363.53;;;11.56;76.48
34931;BME280;21134;49.646;8.560;2023-04-07T08:10:40;100366.91;;;11.60;77.21
34931;BME280;21134;49.646;8.560;2023-04-07T08:13:06;100368.63;;;11.59;76.72
34931;BME280;21134;49.646;8.560;2023-04-07T08:15:33;100365.25;;;11.56;77.04
34931;BME280;21134;49.646;8.560;2023-04-07T08:17:59;100373.00;;;11.44;75.71
34931;BME280;21134;49.646;8.560;2023-04-07T08:20:28;100372.22;;;11.29;76.52
34931;BME280;21134;49.646;8.560;2023-04-07T08:22:57;100381.69;;;11.18;77.57
34931;BME280;21134;49.646;8.560;2023-04-07T08:25:23;100380.91;;;11.08;78.54
34931;BME280;21134;49.646;8.560;2023-04-07T08:27:50;100377.50;;;11.03;79.25
34931;BME280;21134;49.646;8.560;2023-04-07T08:30:16;100386.00;;;11.07;79.65
34931;BME280;21134;49.646;8.560;2023-04-07T08:32:45;100386.88;;;11.07;81.42
34931;BME280;21134;49.646;8.560;2023-04-07T08:35:11;100389.41;;;11.12;80.84
34931;BME280;21134;49.646;8.560;2023-04-07T08:37:39;100397.09;;;11.15;81.70
34931;BME280;21134;49.646;8.560;2023-04-07T08:40:08;100383.31;;;11.36;78.92
34931;BME280;21134;49.646;8.560;2023-04-07T08:42:40;100390.88;;;11.51;79.37
34931;BME280;21134;49.646;8.560;2023-04-07T08:45:08;100386.56;;;11.58;78.90
34931;BME280;21134;49.646;8.560;2023-04-07T08:47:36;100395.09;;;11.63;78.48
34931;BME280;21134;49.646;8.560;2023-04-07T08:50:04;100392.47;;;11.71;78.56
34931;BME280;21134;49.646;8.560;2023-04-07T08:52:32;100392.41;;;11.80;78.51
34931;BME280;21134;49.646;8.560;2023-04-07T08:55:00;100392.56;;;11.61;77.23
34931;BME280;21134;49.646;8.560;2023-04-07T08:57:32;100400.28;;;11.51;77.65
34931;BME280;21134;49.646;8.560;2023-04-07T09:00:00;100400.31;;;11.52;77.60
34931;BME280;21134;49.646;8.560;2023-04-07T09:02:30;100390.94;;;11.45;77.13
34931;BME280;21134;49.646;8.560;2023-04-07T09:04:57;100400.31;;;11.52;77.65
34931;BME280;21134;49.646;8.560;2023-04-07T09:07:24;100401.91;;;11.66;76.58
34931;BME280;21134;49.646;8.560;2023-04-07T09:09:51;100405.31;;;11.69;75.90
34931;BME280;21134;49.646;8.560;2023-04-07T09:12:17;100409.56;;;11.67;77.61
34931;BME280;21134;49.646;8.560;2023-04-07T09:14:45;100406.94;;;11.76;74.39
34931;BME280;21134;49.646;8.560;2023-04-07T09:17:11;100410.25;;;11.97;76.02
34931;BME280;21134;49.646;8.560;2023-04-07T09:19:38;100412.53;;;12.32;75.70
34931;BME280;21134;49.646;8.560;2023-04-07T09:22:05;100414.91;;;12.47;73.13
34931;BME280;21134;49.646;8.560;2023-04-07T09:24:32;100416.69;;;12.42;73.97
34931;BME280;21134;49.646;8.560;2023-04-07T09:27:12;100412.69;;;12.14;74.13
34931;BME280;21134;49.646;8.560;2023-04-07T09:29:39;100418.72;;;12.06;73.46
34931;BME280;21134;49.646;8.560;2023-04-07T09:32:08;100411.09;;;11.99;73.76
34931;BME280;21134;49.646;8.560;2023-04-07T09:34:36;100418.03;;;11.84;75.68
34931;BME280;21134;49.646;8.560;2023-04-07T09:37:05;100411.22;;;11.76;75.73
34931;BME280;21134;49.646;8.560;2023-04-07T09:39:32;100414.59;;;11.84;77.63
34931;BME280;21134;49.646;8.560;2023-04-07T09:42:05;100416.31;;;11.85;76.58
34931;BME280;21134;49.646;8.560;2023-04-07T09:44:38;100413.75;;;11.82;76.78
34931;BME280;21134;49.646;8.560;2023-04-07T09:47:05;100413.00;;;11.68;76.69
34931;BME280;21134;49.646;8.560;2023-04-07T09:49:47;100418.28;;;11.43;77.33
34931;BME280;21134;49.646;8.560;2023-04-07T09:52:14;100418.25;;;11.48;78.25
34931;BME280;21134;49.646;8.560;2023-04-07T09:54:41;100413.94;;;11.54;78.19
34931;BME280;21134;49.646;8.560;2023-04-07T09:57:09;100407.03;;;11.69;78.71
34931;BME280;21134;49.646;8.560;2023-04-07T09:59:37;100409.53;;;11.78;77.63
34931;BME280;21134;49.646;8.560;2023-04-07T10:02:05;100414.63;;;11.81;77.49
34931;BME280;21134;49.646;8.560;2023-04-07T10:04:33;100412.13;;;11.70;77.42
34931;BME280;21134;49.646;8.560;2023-04-07T10:06:59;100411.28;;;11.70;76.40
34931;BME280;21134;49.646;8.560;2023-04-07T10:09:28;100413.06;;;11.58;77.34
34931;BME280;21134;49.646;8.560;2023-04-07T10:11:56;100414.75;;;11.61;77.32
34931;BME280;21134;49.646;8.560;2023-04-07T10:14:26;100413.00;;;11.66;78.69
34931;BME280;21134;49.646;8.560;2023-04-07T10:16:53;100413.00;;;11.64;77.87
34931;BME280;21134;49.646;8.560;2023-04-07T10:19:20;100421.56;;;11.65;76.41
34931;BME280;21134;49.646;8.560;2023-04-07T10:21:50;100415.63;;;11.58;76.53
34931;BME280;21134;49.646;8.560;2023-04-07T10:24:29;100414.78;;;11.52;77.15
34931;BME280;21134;49.646;8.560;2023-04-07T10:27:03;100419.09;;;11.50;77.33
34931;BME280;21134;49.646;8.560;2023-04-07T10:29:34;100422.56;;;11.39;77.79
34931;BME280;21134;49.646;8.560;2023-04-07T10:32:03;100426.00;;;11.34;78.16
34931;BME280;21134;49.646;8.560;2023-04-07T10:34:54;100432.84;;;11.32;79.26
34931;BME280;21134;49.646;8.560;2023-04-07T10:37:24;100432.81;;;11.39;79.55
34931;BME280;21134;49.646;8.560;2023-04-07T10:40:26;100432.78;;;11.49;80.41
34931;BME280;21134;49.646;8.560;2023-04-07T10:42:53;100435.25;;;11.61;79.73
34931;BME280;21134;49.646;8.560;2023-04-07T10:48:20;100433.34;;;11.95;79.37
34931;BME280;21134;49.646;8.560;2023-04-07T10:51:11;100435.69;;;12.21;77.75
34931;BME280;21134;49.646;8.560;2023-04-07T10:57:19;100434.16;;;12.88;73.62
34931;BME280;21134;49.646;8.560;2023-04-07T11:00:16;100429.00;;;12.91;73.18
34931;BME280;21134;49.646;8.560;2023-04-07T11:02:43;100432.97;;;13.17;73.27
34931;BME280;21134;49.646;8.560;2023-04-07T11:05:19;100438.94;;;13.19;76.32
34931;BME280;21134;49.646;8.560;2023-04-07T11:07:55;100437.31;;;13.12;74.87
34931;BME280;21134;49.646;8.560;2023-04-07T11:10:26;100441.97;;;12.80;75.36
34931;BME280;21134;49.646;8.560;2023-04-07T11:13:03;100440.88;;;12.98;78.64
34931;BME280;21134;49.646;8.560;2023-04-07T11:15:30;100440.78;;;13.08;79.47
34931;BME280;21134;49.646;8.560;2023-04-07T11:18:17;100439.88;;;13.15;80.73
34931;BME280;21134;49.646;8.560;2023-04-07T11:20:46;100434.69;;;13.18;78.72
34931;BME280;21134;49.646;8.560;2023-04-07T11:23:14;100441.31;;;13.36;77.61
34931;BME280;21134;49.646;8.560;2023-04-07T11:25:42;100432.00;;;13.27;78.93
34931;BME280;21134;49.646;8.560;2023-04-07T11:28:12;100441.63;;;13.10;78.23
34931;BME280;21134;49.646;8.560;2023-04-07T11:30:44;100437.53;;;12.93;78.71
34931;BME280;21134;49.646;8.560;2023-04-07T11:33:14;100445.69;;;12.50;81.43
34931;BME280;21134;49.646;8.560;2023-04-07T11:35:46;100445.00;;;12.31;82.22
34931;BME280;21134;49.646;8.560;2023-04-07T11:38:13;100448.50;;;12.26;83.64
34931;BME280;21134;49.646;8.560;2023-04-07T11:40:40;100450.22;;;12.24;83.41
34931;BME280;21134;49.646;8.560;2023-04-07T11:43:16;100456.16;;;12.27;83.99
34931;BME280;21134;49.646;8.560;2023-04-07T11:45:43;100450.13;;;12.31;83.31
34931;BME280;21134;49.646;8.560;2023-04-07T11:48:26;100454.59;;;12.13;85.66
34931;BME280;21134;49.646;8.560;2023-04-07T11:50:52;100459.78;;;12.03;85.72
34931;BME280;21134;49.646;8.560;2023-04-07T11:53:24;100462.25;;;12.14;87.52
34931;BME280;21134;49.646;8.560;2023-04-07T11:56:01;100460.56;;;12.13;87.32
34931;BME280;21134;49.646;8.560;2023-04-07T11:58:29;100467.41;;;12.16;87.22
34931;BME280;21134;49.646;8.560;2023-04-07T12:00:56;100464.72;;;12.26;88.39
34931;BME280;21134;49.646;8.560;2023-04-07T12:03:23;100473.38;;;12.13;88.03
34931;BME280;21134;49.646;8.560;2023-04-07T12:05:50;100463.31;;;11.87;86.20
34931;BME280;21134;49.646;8.560;2023-04-07T12:08:17;100474.47;;;11.75;88.23
34931;BME280;21134;49.646;8.560;2023-04-07T12:10:44;100468.63;;;11.53;89.47
34931;BME280;21134;49.646;8.560;2023-04-07T12:13:12;100473.75;;;11.50;89.92
34931;BME280;21134;49.646;8.560;2023-04-07T12:15:40;100475.47;;;11.45;90.50
34931;BME280;21134;49.646;8.560;2023-04-07T12:18:07;100473.88;;;11.20;91.78
34931;BME280;21134;49.646;8.560;2023-04-07T12:20:34;100475.66;;;10.99;93.75
34931;BME280;21134;49.646;8.560;2023-04-07T12:23:00;100475.69;;;10.87;94.74
34931;BME280;21134;49.646;8.560;2023-04-07T12:25:27;100475.69;;;10.91;92.97
34931;BME280;21134;49.646;8.560;2023-04-07T12:27:54;100474.00;;;10.77;91.95
34931;BME280;21134;49.646;8.560;2023-04-07T12:30:20;100475.75;;;10.52;93.15
34931;BME280;21134;49.646;8.560;2023-04-07T12:32:49;100474.91;;;10.54;94.06
34931;BME280;21134;49.646;8.560;2023-04-07T12:35:15;100484.28;;;10.51;95.61
34931;BME280;21134;49.646;8.560;2023-04-07T12:37:42;100481.72;;;10.55;95.22
34931;BME280;21134;49.646;8.560;2023-04-07T12:40:08;100482.56;;;10.56;95.37
34931;BME280;21134;49.646;8.560;2023-04-07T12:42:35;100480.00;;;10.53;96.11
34931;BME280;21134;49.646;8.560;2023-04-07T12:45:02;100476.59;;;10.67;95.00
34931;BME280;21134;49.646;8.560;2023-04-07T12:47:28;100485.09;;;10.80;94.20
34931;BME280;21134;49.646;8.560;2023-04-07T12:49:56;100485.94;;;10.85;93.91
34931;BME280;21134;49.646;8.560;2023-04-07T12:52:23;100491.03;;;10.90;94.16
34931;BME280;21134;49.646;8.560;2023-04-07T12:54:49;100492.75;;;10.91;91.79
34931;BME280;21134;49.646;8.560;2023-04-07T12:57:17;100491.00;;;11.07;90.89
34931;BME280;21134;49.646;8.560;2023-04-07T12:59:44;100487.53;;;11.28;91.42
34931;BME280;21134;49.646;8.560;2023-04-07T13:02:10;100498.56;;;11.37;88.46